Disclaimer

Please do not use the information listed here in-flight or in-navigation, as they are not provided to us by the airports but are provided by volunteers, so they might be outdated.

Search


Regions


Airport information page

No radio frequency information is available.

Airport informations:
Latitude: 04° 14' 32.43" S
Longitude: 056° 00' 02.41" W
Elevation: 110 feet - 34 meters
Operating hours: Remarks
Operating agency: Civil government, landing fees and diplomatic clearance may be required
Timezone: UTC-4(-3DT)
Fuel: Jet A1, without icing nhibitor.

100/130 octane gasoline, leaded, MIL-L-5572F (GREEN)

Runway information:
05/23 - 5266 x 98 feet< - >1605 x 30 meters

Recent METARs:
SBIH 201400Z 08009KT 8000 NSC 32/25 Q1011
SBIH 201400Z 08009KT 8000 NSC 32/25 Q1011
SBIH 201500Z 10009KT 8000 FEW018 SCT100 33/25 Q1010

Airport on the map: